Time;durP1;ratioP1;P1;durP2;ratioP2;P2;SDS_P1;SDS_P2;PMS_P1;PMS_P2;Temp;Humidity;BMP_temperature;BMP_pressure;BME280_temperature;BME280_humidity;BME280_pressure;Samples;Min_cycle;Max_cycle;Signal;HPM_P1;HPM_P2
2022/07/02 00:00:21;;;;;;;14.63;2.45;;;44.20;22.20;;;;;;4929255;29;20031;-65
2022/07/02 00:02:51;;;;;;;17.02;2.20;;;44.00;22.20;;;;;;4938545;28;20051;-65
2022/07/02 00:05:20;;;;;;;17.52;2.30;;;44.10;21.10;;;;;;4928664;29;20035;-66
2022/07/02 00:07:47;;;;;;;9.60;2.28;;;44.00;22.50;;;;;;4932252;29;20109;-66
2022/07/02 00:10:14;;;;;;;12.98;2.60;;;44.00;21.00;;;;;;4930915;29;20034;-68
2022/07/02 00:12:41;;;;;;;8.23;1.42;;;44.00;20.70;;;;;;4929214;29;20028;-67
2022/07/02 00:15:09;;;;;;;5.60;1.48;;;43.90;16.60;;;;;;4930659;29;20028;-66
2022/07/02 00:17:38;;;;;;;7.10;1.67;;;43.90;16.20;;;;;;4929773;28;20046;-66
2022/07/02 00:20:05;;;;;;;4.38;1.40;;;44.00;15.40;;;;;;4928822;29;20039;-65
2022/07/02 00:22:33;;;;;;;9.88;1.77;;;43.90;17.00;;;;;;4930827;29;20105;-65
2022/07/02 00:24:59;;;;;;;7.10;1.75;;;44.00;16.80;;;;;;4913626;29;20061;-66
2022/07/02 00:27:30;;;;;;;4.75;1.65;;;44.00;16.00;;;;;;4930067;29;20525;-67
2022/07/02 00:30:02;;;;;;;6.72;1.23;;;44.10;16.50;;;;;;4929522;29;20024;-71
2022/07/02 00:32:34;;;;;;;11.15;1.90;;;44.10;17.00;;;;;;4928165;29;20050;-67
2022/07/02 00:35:08;;;;;;;15.90;1.90;;;44.10;16.30;;;;;;4928040;29;20027;-64
2022/07/02 00:37:37;;;;;;;8.93;2.10;;;43.90;16.20;;;;;;4926249;29;20047;-63
2022/07/02 00:40:08;;;;;;;7.20;1.40;;;43.90;16.60;;;;;;4929962;29;20363;-67
2022/07/02 00:42:37;;;;;;;7.45;1.60;;;43.90;16.50;;;;;;4928336;29;20031;-67
2022/07/02 00:45:05;;;;;;;8.63;1.90;;;43.80;16.40;;;;;;4929305;29;20058;-64
2022/07/02 00:47:33;;;;;;;5.80;1.40;;;43.70;16.90;;;;;;4929193;29;20059;-66
2022/07/02 00:50:06;;;;;;;16.75;2.25;;;43.70;16.90;;;;;;4944592;28;20041;-65
2022/07/02 00:52:32;;;;;;;19.55;2.83;;;43.50;17.00;;;;;;4932904;29;20481;-68
2022/07/02 00:54:59;;;;;;;9.77;2.00;;;43.30;17.00;;;;;;4932948;29;20426;-68
2022/07/02 00:57:26;;;;;;;18.40;1.90;;;43.20;17.10;;;;;;4949095;29;20072;-69
2022/07/02 00:59:52;;;;;;;11.35;1.90;;;43.20;17.20;;;;;;4934009;29;20475;-64
2022/07/02 01:02:22;;;;;;;18.88;2.03;;;43.10;17.10;;;;;;4931504;29;20038;-65
2022/07/02 01:04:50;;;;;;;12.48;1.73;;;43.10;17.40;;;;;;4931947;29;20070;-65
2022/07/02 01:07:19;;;;;;;40.05;2.95;;;42.90;17.30;;;;;;4932037;29;20654;-67
2022/07/02 01:12:35;;;;;;;28.05;3.10;;;42.60;17.70;;;;;;4932088;29;20085;-70
2022/07/02 01:15:02;;;;;;;29.60;3.20;;;42.60;17.80;;;;;;4932241;29;20047;-70
2022/07/02 01:17:28;;;;;;;47.78;3.63;;;42.30;17.90;;;;;;4933103;29;20060;-69
2022/07/02 01:19:55;;;;;;;33.83;3.55;;;42.00;17.90;;;;;;4930981;29;20553;-68
2022/07/02 01:22:32;;;;;;;30.55;3.20;;;41.90;18.20;;;;;;4933705;29;20048;-68
2022/07/02 01:24:58;;;;;;;23.20;3.08;;;41.80;18.20;;;;;;4931524;29;20064;-69
2022/07/02 01:27:25;;;;;;;39.50;4.40;;;41.60;18.40;;;;;;4930823;29;20447;-70
2022/07/02 01:29:51;;;;;;;55.80;4.80;;;41.60;18.40;;;;;;4947620;29;20056;-71
2022/07/02 01:32:18;;;;;;;38.25;4.38;;;41.40;18.60;;;;;;4932506;29;20157;-68
2022/07/02 01:34:50;;;;;;;48.67;4.45;;;41.20;18.50;;;;;;4931714;29;20409;-68
2022/07/02 01:37:18;;;;;;;51.90;4.68;;;41.20;18.50;;;;;;4933048;29;20465;-68
2022/07/02 01:39:45;;;;;;;24.98;3.50;;;40.80;18.10;;;;;;4932900;29;20077;-69
2022/07/02 01:42:14;;;;;;;37.63;4.50;;;40.80;18.50;;;;;;4933963;29;20057;-67
2022/07/02 01:44:41;;;;;;;40.60;4.30;;;40.60;18.30;;;;;;4933794;29;20071;-68
2022/07/02 01:47:10;;;;;;;32.55;4.05;;;40.50;18.30;;;;;;4933070;29;20057;-69
2022/07/02 01:49:37;;;;;;;29.77;3.85;;;39.90;25.40;;;;;;4932364;29;20058;-70
2022/07/02 01:52:05;;;;;;;29.80;3.15;;;40.40;18.40;;;;;;4933246;29;20520;-73
2022/07/02 01:54:32;;;;;;;67.38;5.90;;;40.20;18.30;;;;;;4932245;29;20145;-71
2022/07/02 01:57:00;;;;;;;35.70;4.07;;;40.20;18.50;;;;;;4932278;29;20053;-72
2022/07/02 01:59:26;;;;;;;38.60;4.63;;;40.00;18.70;;;;;;4931921;29;20060;-67
2022/07/02 02:01:53;;;;;;;52.95;3.97;;;39.90;18.70;;;;;;4931171;29;20145;-68
2022/07/02 02:04:19;;;;;;;31.17;3.60;;;39.70;18.60;;;;;;4947965;29;20054;-71
2022/07/02 02:06:46;;;;;;;47.75;4.43;;;39.60;18.50;;;;;;4932166;29;20054;-67
2022/07/02 02:09:12;;;;;;;35.70;4.05;;;39.50;18.60;;;;;;4932007;29;21090;-70
2022/07/02 02:11:39;;;;;;;43.58;3.72;;;39.40;18.70;;;;;;4929850;29;20080;-71
2022/07/02 02:14:05;;;;;;;37.92;3.67;;;39.40;18.60;;;;;;4948029;29;20085;-68
2022/07/02 02:16:32;;;;;;;28.05;3.65;;;39.30;18.30;;;;;;4932664;29;20052;-70
2022/07/02 02:19:00;;;;;;;32.65;3.60;;;39.20;18.10;;;;;;4947460;29;20058;-66
2022/07/02 02:21:28;;;;;;;29.35;4.10;;;39.60;24.60;;;;;;4930541;29;20150;-70
2022/07/02 02:23:55;;;;;;;23.00;2.95;;;39.10;18.30;;;;;;4932061;29;20057;-69
2022/07/02 02:26:22;;;;;;;32.85;3.28;;;39.00;18.00;;;;;;4952359;29;20163;-70
2022/07/02 02:28:50;;;;;;;19.60;2.92;;;38.90;18.30;;;;;;4932734;29;20108;-65
2022/07/02 02:31:17;;;;;;;19.40;2.78;;;38.80;18.20;;;;;;4946648;29;20056;-67
2022/07/02 02:33:43;;;;;;;16.45;2.55;;;38.70;18.00;;;;;;4932909;29;20455;-69
2022/07/02 02:36:10;;;;;;;24.17;2.25;;;38.60;18.10;;;;;;4946942;28;20437;-69
2022/07/02 02:38:36;;;;;;;21.73;2.28;;;38.60;17.90;;;;;;4933149;29;20028;-67
2022/07/02 02:41:07;;;;;;;13.40;2.15;;;38.60;17.90;;;;;;4932827;29;20073;-71
2022/07/02 02:43:35;;;;;;;17.52;2.20;;;38.50;17.90;;;;;;4947252;28;20116;-72
2022/07/02 02:46:03;;;;;;;15.70;2.15;;;38.40;18.10;;;;;;4932599;29;20055;-70
2022/07/02 02:48:29;;;;;;;13.25;2.10;;;38.30;18.30;;;;;;4931609;29;20106;-68
2022/07/02 02:50:57;;;;;;;10.82;2.35;;;38.20;18.10;;;;;;4930910;29;20028;-68
2022/07/02 02:53:23;;;;;;;20.10;2.10;;;38.20;18.20;;;;;;4945105;28;20100;-72
2022/07/02 02:55:50;;;;;;;17.52;2.20;;;38.00;18.00;;;;;;4929168;29;20165;-70
2022/07/02 02:58:17;;;;;;;11.65;2.28;;;38.00;18.30;;;;;;4930825;29;20071;-69
2022/07/02 03:00:43;;;;;;;13.68;2.05;;;37.90;18.60;;;;;;4930935;29;20902;-70
2022/07/02 03:03:10;;;;;;;13.85;2.58;;;37.80;18.20;;;;;;4944688;29;20064;-70
2022/07/02 03:05:37;;;;;;;10.90;1.65;;;37.80;18.70;;;;;;4930672;29;20086;-69
2022/07/02 03:08:03;;;;;;;11.85;2.05;;;37.80;18.60;;;;;;4930886;29;20060;-72
2022/07/02 03:10:30;;;;;;;20.05;2.20;;;37.60;18.60;;;;;;4930190;29;20472;-70
2022/07/02 03:12:56;;;;;;;12.50;2.17;;;37.70;18.60;;;;;;4930661;29;20091;-69
2022/07/02 03:15:22;;;;;;;7.97;1.77;;;37.50;18.50;;;;;;4932038;29;20081;-70
2022/07/02 03:17:49;;;;;;;15.25;2.17;;;37.50;18.70;;;;;;4929222;29;20158;-72
2022/07/02 03:20:15;;;;;;;10.55;2.35;;;37.50;18.90;;;;;;4929863;29;20084;-68
2022/07/02 03:22:41;;;;;;;11.43;2.05;;;37.40;19.00;;;;;;4930175;29;20069;-73
2022/07/02 03:25:08;;;;;;;14.25;2.38;;;37.40;19.30;;;;;;4929244;29;20089;-69
2022/07/02 03:27:35;;;;;;;10.13;2.10;;;37.30;19.30;;;;;;4930188;29;20547;-68
2022/07/02 03:30:02;;;;;;;14.40;2.22;;;37.20;19.80;;;;;;4930866;29;20517;-68
2022/07/02 03:32:29;;;;;;;13.18;2.47;;;37.20;20.30;;;;;;4929706;29;20182;-69
2022/07/02 03:34:56;;;;;;;16.25;3.13;;;37.10;20.70;;;;;;4930549;29;20067;-69
2022/07/02 03:37:26;;;;;;;15.20;2.22;;;37.00;21.10;;;;;;4945889;29;20090;-70
2022/07/02 03:39:52;;;;;;;20.42;2.28;;;36.90;21.40;;;;;;4930136;29;20087;-69
2022/07/02 03:42:19;;;;;;;12.60;2.13;;;36.80;21.60;;;;;;4946087;29;20438;-68
2022/07/02 03:44:45;;;;;;;14.57;2.00;;;36.80;21.70;;;;;;4930090;29;20079;-69
2022/07/02 03:47:12;;;;;;;13.43;2.40;;;36.80;21.80;;;;;;4931244;29;20083;-68
2022/07/02 03:49:38;;;;;;;10.70;1.98;;;36.70;21.80;;;;;;4929557;29;20416;-70
2022/07/02 03:52:05;;;;;;;18.70;2.17;;;36.70;21.90;;;;;;4930108;29;20087;-70
2022/07/02 03:54:31;;;;;;;15.52;2.00;;;36.60;21.80;;;;;;4930103;29;20564;-68
2022/07/02 03:56:58;;;;;;;15.35;2.45;;;36.60;22.10;;;;;;4945654;29;20471;-70
2022/07/02 03:59:24;;;;;;;9.15;2.30;;;36.50;22.00;;;;;;4929576;29;20105;-70
2022/07/02 04:01:52;;;;;;;10.77;1.92;;;36.50;22.30;;;;;;4945246;29;20489;-69
2022/07/02 04:04:19;;;;;;;12.90;2.20;;;36.50;22.40;;;;;;4931359;29;20087;-68
2022/07/02 04:06:46;;;;;;;12.48;2.38;;;36.40;22.40;;;;;;4929988;29;20070;-69
2022/07/02 04:09:13;;;;;;;17.73;2.80;;;36.40;22.50;;;;;;4931432;29;20550;-70
2022/07/02 04:11:40;;;;;;;13.80;2.47;;;36.30;22.50;;;;;;4929507;29;20157;-68
2022/07/02 04:14:07;;;;;;;18.13;2.97;;;36.20;22.60;;;;;;4929554;29;20100;-68
2022/07/02 04:16:33;;;;;;;10.93;2.53;;;36.20;22.60;;;;;;4930802;29;20170;-70
2022/07/02 04:18:59;;;;;;;25.30;3.35;;;36.00;22.50;;;;;;4930035;29;20493;-67
2022/07/02 04:21:26;;;;;;;16.35;2.53;;;35.90;22.60;;;;;;4929934;29;20178;-68
2022/07/02 04:23:52;;;;;;;12.80;3.00;;;35.90;22.80;;;;;;4931674;29;20090;-67
2022/07/02 04:26:18;;;;;;;14.18;2.95;;;35.90;22.60;;;;;;4949763;28;20099;-70
2022/07/02 04:28:45;;;;;;;9.98;2.63;;;35.80;22.50;;;;;;4933303;29;20110;-69
2022/07/02 04:31:11;;;;;;;14.73;2.72;;;35.80;22.60;;;;;;4949704;29;20761;-71
2022/07/02 04:33:38;;;;;;;11.40;2.40;;;35.80;22.50;;;;;;4934449;29;20454;-71
2022/07/02 04:36:04;;;;;;;9.93;2.25;;;35.70;23.00;;;;;;4933799;29;20106;-69
2022/07/02 04:38:30;;;;;;;8.57;2.25;;;35.60;22.50;;;;;;4933609;29;20436;-68
2022/07/02 04:40:57;;;;;;;7.95;2.10;;;35.50;22.60;;;;;;4949381;29;20520;-69
2022/07/02 04:43:23;;;;;;;13.75;2.30;;;35.50;22.50;;;;;;4934639;29;20082;-71
2022/07/02 04:45:49;;;;;;;9.48;2.08;;;35.50;22.70;;;;;;4949305;29;20135;-68
2022/07/02 04:48:16;;;;;;;21.75;2.53;;;35.40;22.50;;;;;;4933405;29;20133;-69
2022/07/02 04:50:42;;;;;;;17.52;2.63;;;35.40;22.60;;;;;;4949064;29;20081;-67
2022/07/02 04:53:09;;;;;;;10.00;2.85;;;35.30;22.40;;;;;;4948085;29;20149;-69
2022/07/02 04:55:35;;;;;;;16.83;2.60;;;35.20;22.40;;;;;;4932491;29;20117;-68
2022/07/02 04:58:01;;;;;;;11.23;2.67;;;35.10;22.50;;;;;;4933862;29;20083;-68
2022/07/02 05:00:28;;;;;;;13.13;2.35;;;35.10;22.50;;;;;;4947144;29;20075;-69
2022/07/02 05:02:55;;;;;;;12.65;1.98;;;35.00;22.50;;;;;;4933433;29;20162;-66
2022/07/02 05:05:21;;;;;;;12.90;2.20;;;35.00;22.60;;;;;;4933221;29;20452;-69
2022/07/02 05:07:47;;;;;;;14.20;2.20;;;34.90;22.20;;;;;;4933182;29;20106;-66
2022/07/02 05:10:14;;;;;;;13.07;2.28;;;34.90;22.30;;;;;;4932573;29;20162;-71
2022/07/02 05:12:40;;;;;;;13.88;2.60;;;34.80;22.10;;;;;;4948153;29;20085;-68
2022/07/02 05:19:15;;;;;;;12.95;2.10;;;34.80;22.10;;;;;;4934379;29;20162;-72
2022/07/02 05:21:43;;;;;;;9.38;2.13;;;34.80;22.00;;;;;;4948683;29;20102;-71
2022/07/02 05:24:10;;;;;;;16.58;2.47;;;34.70;22.00;;;;;;4933997;29;20444;-69
2022/07/02 05:26:55;;;;;;;8.02;1.98;;;34.70;21.80;;;;;;4932672;29;20098;-70
2022/07/02 05:36:05;;;;;;;8.90;1.58;;;34.50;21.60;;;;;;4933541;29;20112;-71
2022/07/02 05:38:34;;;;;;;13.93;1.48;;;34.50;21.90;;;;;;4948378;29;20075;-72
2022/07/02 05:41:00;;;;;;;11.27;2.38;;;34.50;21.70;;;;;;4933059;29;20133;-70
2022/07/02 05:43:27;;;;;;;12.32;2.25;;;34.50;21.80;;;;;;4947868;29;20094;-71
2022/07/02 05:45:53;;;;;;;12.40;2.17;;;34.40;21.60;;;;;;4933182;29;20078;-71
2022/07/02 05:48:20;;;;;;;7.88;1.58;;;34.40;21.40;;;;;;4933276;29;20541;-70
2022/07/02 05:50:46;;;;;;;13.65;1.83;;;34.30;21.60;;;;;;4932866;29;20081;-70
2022/07/02 05:53:13;;;;;;;5.28;1.73;;;34.30;21.50;;;;;;4933235;29;20624;-71
2022/07/02 05:55:40;;;;;;;11.77;1.95;;;34.30;21.60;;;;;;4946859;29;20477;-68
2022/07/02 05:58:06;;;;;;;6.72;1.70;;;34.30;21.70;;;;;;4932051;28;20093;-72
2022/07/02 06:00:33;;;;;;;8.77;1.70;;;34.30;21.70;;;;;;4931816;29;20099;-71
2022/07/02 06:02:59;;;;;;;7.32;1.50;;;34.30;21.60;;;;;;4933737;29;20082;-71
2022/07/02 06:08:10;;;;;;;8.13;1.77;;;34.10;21.40;;;;;;4932703;29;20223;-70
2022/07/02 06:10:36;;;;;;;3.10;1.10;;;34.10;21.70;;;;;;4933823;29;20557;-71
2022/07/02 06:13:03;;;;;;;15.73;1.73;;;34.10;21.70;;;;;;4931606;29;20428;-71
2022/07/02 06:15:30;;;;;;;4.80;1.30;;;34.10;21.70;;;;;;4932386;29;20071;-69
2022/07/02 06:18:00;;;;;;;9.70;2.20;;;34.10;22.00;;;;;;4932626;29;20091;-71
2022/07/02 06:20:27;;;;;;;6.35;2.00;;;34.00;21.80;;;;;;4947333;29;20588;-71
2022/07/02 06:22:53;;;;;;;7.53;1.58;;;34.00;21.70;;;;;;4931782;29;20075;-69
2022/07/02 06:25:20;;;;;;;8.32;1.85;;;33.90;21.60;;;;;;4946720;29;20106;-69
2022/07/02 06:27:47;;;;;;;7.13;1.50;;;33.90;21.70;;;;;;4931156;29;20456;-70
2022/07/02 06:30:13;;;;;;;10.25;1.60;;;33.90;21.70;;;;;;4930898;29;20450;-70
2022/07/02 06:32:40;;;;;;;5.18;1.60;;;33.90;21.70;;;;;;4932308;29;20545;-70
2022/07/02 06:35:06;;;;;;;12.50;2.35;;;33.90;21.90;;;;;;4932469;29;20094;-70
2022/07/02 06:37:32;;;;;;;4.40;1.50;;;33.80;21.90;;;;;;4930916;29;20072;-72
2022/07/02 06:39:59;;;;;;;7.47;1.83;;;33.70;21.60;;;;;;4946557;29;20514;-70
2022/07/02 06:42:31;;;;;;;4.75;1.63;;;33.70;21.60;;;;;;4946718;29;20130;-72
2022/07/02 06:45:00;;;;;;;13.18;1.98;;;33.70;21.90;;;;;;4932677;29;20082;-70
2022/07/02 06:47:27;;;;;;;4.32;1.30;;;33.60;22.00;;;;;;4933173;29;20102;-70
2022/07/02 06:49:56;;;;;;;5.88;1.42;;;33.50;22.00;;;;;;4945996;29;20110;-70
2022/07/02 06:52:23;;;;;;;9.85;1.63;;;33.50;22.20;;;;;;4929914;29;20095;-70
2022/07/02 06:54:49;;;;;;;5.53;1.27;;;33.50;22.30;;;;;;4930479;29;20103;-69
2022/07/02 06:57:16;;;;;;;6.57;1.58;;;33.50;22.50;;;;;;4930917;29;20075;-70
2022/07/02 06:59:42;;;;;;;7.72;1.52;;;33.50;22.40;;;;;;4932208;29;20071;-71
2022/07/02 07:02:09;;;;;;;11.25;1.73;;;33.50;22.50;;;;;;4930765;29;20083;-68
2022/07/02 07:04:36;;;;;;;4.55;0.80;;;33.40;22.60;;;;;;4930462;29;20080;-70
2022/07/02 07:07:05;;;;;;;9.93;1.40;;;33.40;22.90;;;;;;4930797;29;20158;-68
2022/07/02 07:09:34;;;;;;;8.82;1.10;;;33.30;22.90;;;;;;4932181;29;20083;-69
2022/07/02 07:12:04;;;;;;;4.72;0.93;;;33.20;23.00;;;;;;4946487;29;20101;-70
2022/07/02 07:14:31;;;;;;;6.00;1.48;;;33.20;23.20;;;;;;4930657;29;20097;-70
2022/07/02 07:16:58;;;;;;;6.30;1.50;;;33.10;23.60;;;;;;4931505;29;20078;-69
2022/07/02 07:19:24;;;;;;;11.65;1.80;;;33.10;23.60;;;;;;4931108;29;20160;-71
2022/07/02 07:21:51;;;;;;;8.95;2.15;;;33.00;23.60;;;;;;4931540;29;20075;-71
2022/07/02 07:24:17;;;;;;;10.80;2.72;;;32.90;23.50;;;;;;4931960;29;20079;-70
2022/07/02 07:26:44;;;;;;;6.80;2.45;;;32.90;23.70;;;;;;4946808;29;20085;-70
2022/07/02 07:29:10;;;;;;;9.77;2.83;;;32.90;23.90;;;;;;4930080;29;20090;-70
2022/07/02 07:31:37;;;;;;;12.98;2.03;;;32.90;24.00;;;;;;4930292;29;20182;-69
2022/07/02 07:34:04;;;;;;;11.07;1.92;;;32.90;23.90;;;;;;4930190;29;20071;-71
2022/07/02 07:36:31;;;;;;;9.02;1.98;;;32.90;24.20;;;;;;4931256;29;20465;-71
2022/07/02 07:38:59;;;;;;;6.68;1.80;;;32.80;24.00;;;;;;4914844;29;20095;-70
2022/07/02 07:41:26;;;;;;;5.72;1.23;;;32.80;24.20;;;;;;4930801;29;20083;-69
2022/07/02 07:43:52;;;;;;;6.57;1.35;;;32.80;24.20;;;;;;4945653;29;20114;-69
2022/07/02 07:46:20;;;;;;;10.25;1.58;;;32.80;24.30;;;;;;4930469;29;20452;-68
2022/07/02 07:48:47;;;;;;;7.20;1.50;;;32.80;24.50;;;;;;4929736;29;20091;-70
2022/07/02 07:51:14;;;;;;;8.02;1.40;;;32.80;24.60;;;;;;4929929;29;20130;-72
2022/07/02 07:53:42;;;;;;;7.95;1.38;;;32.80;24.30;;;;;;4931289;29;20146;-68
2022/07/02 07:56:08;;;;;;;8.43;1.38;;;32.90;24.60;;;;;;4929912;29;20091;-70
2022/07/02 07:58:35;;;;;;;13.90;1.67;;;32.80;24.60;;;;;;4944690;29;20071;-68
2022/07/02 08:01:01;;;;;;;13.07;1.55;;;32.80;24.40;;;;;;4928665;29;20075;-65
2022/07/02 08:03:27;;;;;;;13.73;1.95;;;32.90;24.40;;;;;;4948971;28;20445;-64
2022/07/02 08:05:54;;;;;;;11.40;1.60;;;32.80;24.50;;;;;;4927808;29;20166;-68
2022/07/02 08:08:21;;;;;;;5.93;1.10;;;32.80;24.50;;;;;;4929566;29;20586;-67
2022/07/02 08:10:49;;;;;;;6.30;1.02;;;32.80;24.30;;;;;;4930302;29;20081;-69
2022/07/02 08:13:16;;;;;;;2.92;1.10;;;32.90;24.60;;;;;;4930145;29;20143;-68
2022/07/02 08:15:42;;;;;;;4.93;1.20;;;32.90;24.50;;;;;;4929796;29;20138;-68
2022/07/02 08:18:09;;;;;;;5.53;1.35;;;32.80;24.70;;;;;;4931186;29;20079;-70
2022/07/02 08:20:36;;;;;;;7.03;1.40;;;32.80;24.70;;;;;;4929327;29;20146;-70
2022/07/02 08:23:02;;;;;;;5.88;1.60;;;32.80;24.70;;;;;;4930505;29;20130;-69
2022/07/02 08:25:30;;;;;;;5.50;1.30;;;32.80;25.30;;;;;;4930117;29;20103;-71
2022/07/02 08:27:57;;;;;;;4.45;1.42;;;32.90;25.20;;;;;;4929816;29;20083;-68
2022/07/02 08:30:23;;;;;;;12.35;1.73;;;32.80;25.00;;;;;;4930500;29;20506;-68
2022/07/02 08:32:51;;;;;;;12.35;2.00;;;32.80;25.40;;;;;;4945864;28;20708;-68
2022/07/02 08:35:18;;;;;;;9.10;1.70;;;32.70;25.40;;;;;;4943031;28;20562;-68
2022/07/02 08:37:44;;;;;;;13.68;1.98;;;32.70;25.60;;;;;;4928671;29;20090;-69
2022/07/02 08:40:11;;;;;;;4.38;1.20;;;32.70;25.60;;;;;;4931044;29;20067;-66
2022/07/02 08:42:42;;;;;;;10.45;2.03;;;32.60;25.70;;;;;;4945551;29;20079;-68
2022/07/02 08:45:11;;;;;;;12.10;2.03;;;32.50;26.10;;;;;;4945030;29;20193;-68
2022/07/02 08:47:40;;;;;;;17.98;2.75;;;32.40;26.00;;;;;;4930265;29;20204;-68
2022/07/02 08:50:09;;;;;;;30.75;3.92;;;32.30;26.10;;;;;;4929396;29;20079;-69
2022/07/02 08:52:39;;;;;;;35.00;4.57;;;32.30;25.90;;;;;;4945129;28;20103;-69
2022/07/02 08:55:06;;;;;;;40.47;4.75;;;32.20;25.70;;;;;;4929063;29;20163;-71
2022/07/02 08:57:33;;;;;;;22.35;4.57;;;32.20;25.80;;;;;;4930422;29;20067;-69
2022/07/02 09:00:00;;;;;;;38.65;5.55;;;32.10;26.70;;;;;;4929527;29;20137;-68
2022/07/02 09:02:28;;;;;;;25.73;4.85;;;32.00;27.30;;;;;;4926915;29;20086;-68
2022/07/02 09:04:58;;;;;;;27.35;4.65;;;31.90;26.70;;;;;;4929714;29;20118;-69
2022/07/02 09:07:24;;;;;;;31.70;5.10;;;31.90;26.90;;;;;;4928158;29;20165;-70
2022/07/02 09:09:52;;;;;;;36.53;4.30;;;31.90;27.30;;;;;;4930572;29;20635;-71
2022/07/02 09:12:18;;;;;;;27.90;4.55;;;31.70;27.80;;;;;;4931695;29;20099;-71
2022/07/02 09:14:45;;;;;;;39.40;5.68;;;31.70;27.90;;;;;;4931765;29;20099;-73
2022/07/02 09:17:12;;;;;;;26.05;4.47;;;31.70;27.90;;;;;;4933125;29;20577;-72
2022/07/02 09:19:42;;;;;;;25.27;4.40;;;31.60;27.60;;;;;;4933216;29;20534;-70
2022/07/02 09:22:12;;;;;;;28.88;4.75;;;31.60;28.10;;;;;;4931842;29;20094;-71
2022/07/02 09:24:43;;;;;;;28.75;4.63;;;31.50;28.30;;;;;;4931856;29;20406;-71
2022/07/02 09:27:15;;;;;;;31.27;4.82;;;31.50;28.10;;;;;;4948426;29;20115;-69
2022/07/02 09:29:55;;;;;;;28.77;4.90;;;31.50;28.00;;;;;;4947457;29;20095;-71
2022/07/02 09:32:25;;;;;;;27.73;5.00;;;31.50;28.30;;;;;;4932924;29;20118;-71
2022/07/02 09:34:54;;;;;;;23.67;4.95;;;31.50;30.20;;;;;;4932444;29;20126;-70
2022/07/02 09:37:24;;;;;;;18.45;4.20;;;31.40;31.20;;;;;;4931283;29;20129;-72
2022/07/02 09:39:52;;;;;;;24.50;4.82;;;31.30;32.60;;;;;;4932834;29;20081;-71
2022/07/02 09:42:33;;;;;;;25.58;4.47;;;31.30;33.40;;;;;;4947234;29;20628;-71
2022/07/02 09:45:02;;;;;;;20.23;4.57;;;31.30;33.70;;;;;;4947205;28;20553;-70
2022/07/02 09:47:32;;;;;;;19.13;4.25;;;31.30;34.40;;;;;;4932148;29;20102;-70
2022/07/02 09:50:03;;;;;;;21.92;5.85;;;31.20;35.80;;;;;;4931841;29;20100;-70
2022/07/02 09:52:30;;;;;;;30.00;5.07;;;31.10;36.70;;;;;;4932770;29;20127;-70
2022/07/02 09:54:57;;;;;;;22.65;4.28;;;31.10;36.90;;;;;;4850826;29;2382687;-70
2022/07/02 09:57:24;;;;;;;18.13;4.45;;;31.10;37.30;;;;;;4948578;29;20473;-71
2022/07/02 09:59:50;;;;;;;24.73;4.97;;;31.10;37.20;;;;;;4933628;29;20067;-70
2022/07/02 10:02:24;;;;;;;22.67;4.25;;;31.00;36.70;;;;;;4934124;29;20151;-71
2022/07/02 10:04:52;;;;;;;31.52;4.35;;;31.10;37.10;;;;;;4933790;29;20078;-71
2022/07/02 10:07:21;;;;;;;22.17;4.70;;;31.00;37.70;;;;;;4931594;29;20087;-70
2022/07/02 10:09:49;;;;;;;18.75;4.10;;;31.00;38.10;;;;;;4933692;29;20075;-71
2022/07/02 10:12:18;;;;;;;19.58;4.45;;;31.00;39.90;;;;;;4931833;29;20489;-70
2022/07/02 10:14:46;;;;;;;21.50;4.53;;;31.00;42.80;;;;;;4933100;29;20099;-68
2022/07/02 10:17:14;;;;;;;16.00;4.00;;;31.00;45.90;;;;;;4932542;29;20082;-69
2022/07/02 10:19:41;;;;;;;17.65;4.38;;;30.90;47.40;;;;;;4932889;29;20182;-72
2022/07/02 10:22:08;;;;;;;21.17;4.13;;;30.90;48.90;;;;;;4931535;29;20075;-72
2022/07/02 10:24:36;;;;;;;19.65;4.07;;;30.80;45.40;;;;;;4931877;29;20512;-70
2022/07/02 10:27:04;;;;;;;16.10;3.83;;;30.80;45.80;;;;;;4931405;29;20079;-69
2022/07/02 10:29:30;;;;;;;18.33;4.32;;;30.80;46.80;;;;;;4932717;29;20117;-70
2022/07/02 10:32:05;;;;;;;13.18;4.03;;;30.80;48.70;;;;;;4932491;29;20122;-68
2022/07/02 10:34:34;;;;;;;15.98;3.78;;;30.80;51.00;;;;;;4932389;29;20106;-71
2022/07/02 10:37:01;;;;;;;17.20;3.75;;;30.70;51.90;;;;;;4933341;29;20083;-69
2022/07/02 10:39:41;;;;;;;12.52;3.38;;;30.80;52.20;;;;;;4947055;29;20489;-68
2022/07/02 10:42:08;;;;;;;21.98;3.47;;;30.70;52.60;;;;;;4931826;29;20232;-69
2022/07/02 10:44:42;;;;;;;11.48;3.92;;;30.70;52.30;;;;;;4946987;29;20633;-69
2022/07/02 10:47:27;;;;;;;21.35;3.63;;;30.70;53.20;;;;;;4932455;29;20106;-69
2022/07/02 10:50:00;;;;;;;12.00;3.70;;;30.70;53.40;;;;;;4932563;29;20094;-70
2022/07/02 10:52:51;;;;;;;12.60;3.42;;;30.60;53.60;;;;;;4948183;29;20095;-70
2022/07/02 10:55:29;;;;;;;16.08;3.65;;;30.50;54.50;;;;;;4932685;29;20123;-71
2022/07/02 10:58:00;;;;;;;18.52;3.30;;;30.50;54.70;;;;;;4932561;29;20575;-70
2022/07/02 11:00:35;;;;;;;16.45;4.07;;;30.40;55.20;;;;;;4930805;29;20076;-67
2022/07/02 11:03:14;;;;;;;16.00;3.80;;;30.40;56.40;;;;;;4932369;29;20086;-71
2022/07/02 11:06:05;;;;;;;18.42;6.47;;;30.40;56.70;;;;;;4931056;29;20608;-69
2022/07/02 11:08:48;;;;;;;20.80;7.82;;;30.40;58.00;;;;;;4930773;29;20546;-70
2022/07/02 11:11:14;;;;;;;18.15;8.13;;;30.30;58.10;;;;;;4931068;29;20482;-70
2022/07/02 11:13:56;;;;;;;27.23;9.80;;;30.30;58.00;;;;;;4930219;29;20092;-69
2022/07/02 11:16:25;;;;;;;24.60;8.90;;;30.30;58.40;;;;;;4930701;29;20519;-69
2022/07/02 11:18:55;;;;;;;22.90;9.25;;;30.30;59.40;;;;;;4930537;29;20082;-69
2022/07/02 11:21:24;;;;;;;18.85;8.32;;;30.20;59.40;;;;;;4930751;29;20079;-71
2022/07/02 11:23:51;;;;;;;23.17;8.48;;;30.10;59.70;;;;;;4932440;29;20075;-68
2022/07/02 11:26:26;;;;;;;22.58;7.68;;;30.20;59.60;;;;;;4929356;29;20087;-72
2022/07/02 11:28:54;;;;;;;23.30;7.45;;;30.10;59.30;;;;;;4930338;29;20110;-68
2022/07/02 11:31:23;;;;;;;17.95;6.55;;;30.10;60.00;;;;;;4930544;29;20079;-69
2022/07/02 11:33:52;;;;;;;17.60;5.80;;;30.00;60.00;;;;;;4930184;29;20120;-70
2022/07/02 11:36:20;;;;;;;15.68;5.00;;;30.00;59.90;;;;;;4945693;28;20087;-70
2022/07/02 11:38:48;;;;;;;13.48;4.20;;;29.90;60.10;;;;;;4929865;29;20522;-69
2022/07/02 11:41:19;;;;;;;19.70;4.07;;;30.00;60.00;;;;;;4946597;28;20071;-70
2022/07/02 11:43:47;;;;;;;12.93;4.03;;;30.00;59.70;;;;;;4930028;29;20530;-68
2022/07/02 11:46:16;;;;;;;12.48;3.55;;;30.00;60.60;;;;;;4930300;29;20596;-71
2022/07/02 11:48:43;;;;;;;17.77;3.95;;;29.90;60.00;;;;;;4930882;29;20122;-69
2022/07/02 11:51:09;;;;;;;13.48;3.67;;;29.90;60.30;;;;;;4929906;29;20101;-69
2022/07/02 11:53:36;;;;;;;13.93;4.93;;;29.90;59.60;;;;;;4931140;29;20090;-68
2022/07/02 11:56:10;;;;;;;12.27;4.22;;;30.00;59.50;;;;;;4945337;29;20110;-71
2022/07/02 11:58:44;;;;;;;16.48;4.25;;;29.90;59.10;;;;;;4929723;29;20075;-69
2022/07/02 12:01:26;;;;;;;16.02;3.85;;;29.90;70.90;;;;;;4929821;29;20063;-68
2022/07/02 12:03:55;;;;;;;22.02;4.05;;;29.80;58.40;;;;;;4931646;29;20075;-68
2022/07/02 12:06:41;;;;;;;19.85;4.75;;;29.70;57.40;;;;;;4929935;29;20098;-71
2022/07/02 12:09:10;;;;;;;19.67;3.47;;;29.70;56.40;;;;;;4944773;29;20079;-70
2022/07/02 12:11:39;;;;;;;19.70;3.25;;;29.60;55.60;;;;;;4929453;29;20083;-69
2022/07/02 12:14:07;;;;;;;17.77;3.15;;;29.60;55.20;;;;;;4931151;29;20066;-69
2022/07/02 12:16:35;;;;;;;17.13;3.55;;;29.60;55.20;;;;;;4945175;29;20163;-71
2022/07/02 12:19:10;;;;;;;20.50;3.20;;;29.60;54.50;;;;;;4946097;29;20548;-69
2022/07/02 12:21:44;;;;;;;14.98;4.25;;;29.50;54.20;;;;;;4931042;29;20066;-71
2022/07/02 12:24:21;;;;;;;21.67;3.40;;;29.40;54.80;;;;;;4930093;29;20087;-70
2022/07/02 12:26:52;;;;;;;27.27;3.38;;;29.30;54.30;;;;;;4929486;29;20080;-71
2022/07/02 12:32:12;;;;;;;16.13;3.45;;;29.40;55.00;;;;;;4931177;29;20122;-70
2022/07/02 12:34:45;;;;;;;22.55;4.15;;;29.30;55.90;;;;;;4944392;29;20561;-69
2022/07/02 12:37:27;;;;;;;18.17;3.90;;;29.30;56.10;;;;;;4930972;29;20098;-72
2022/07/02 12:40:14;;;;;;;14.13;3.72;;;29.20;56.40;;;;;;4930102;29;20079;-70
2022/07/02 12:42:55;;;;;;;17.58;3.97;;;29.20;57.00;;;;;;4945212;29;20081;-69
2022/07/02 12:45:23;;;;;;;22.00;4.45;;;29.10;57.10;;;;;;4930706;29;20242;-67
2022/07/02 12:48:16;;;;;;;14.05;3.90;;;29.10;57.10;;;;;;4934074;29;20087;-69
2022/07/02 12:50:46;;;;;;;17.63;4.32;;;29.10;58.10;;;;;;4947505;29;20181;-71
2022/07/02 12:53:21;;;;;;;19.20;4.10;;;29.00;57.70;;;;;;4948475;29;20482;-71
2022/07/02 12:56:01;;;;;;;18.65;4.38;;;29.00;57.90;;;;;;4948026;29;20173;-69
2022/07/02 12:58:28;;;;;;;22.98;4.63;;;29.00;57.70;;;;;;4932878;29;20121;-70
2022/07/02 13:00:55;;;;;;;20.80;4.28;;;29.00;58.10;;;;;;4934373;29;20119;-68
2022/07/02 13:03:22;;;;;;;18.52;3.92;;;29.00;58.10;;;;;;4932864;29;20084;-70